الصفحة الرئيسية
METAR-TAF:

METAR-TAF

مطار :

Toyama, اليابان

دائرة عرض: 36-39N, خط طول: 137-11E, ارتفاع: 24 متر

مراقبة الطقس الحالي

تاريخ ووقت الإصدار 1ساعة و 19 دقيقة قبل الساعة 00:00UTC
ريح 6 عقدة من الغرب, الاتجاه يتراوح بين الجنوب الغربي و الشمال الغربي
درجة الحرارة 27°درجة مئوية
الرطوبة 74%
ضغط 1007 hPa
الرؤية 10 كم أو أكثر
غيوم قليلة على ارتفاع 6000 قدم
غيوم متفرقة على ارتفاع 19000 قدم
غيوم مفككة

METAR: RJNT 250000Z 26006KT 230V310 9999 FEW060 SCT190 BKN/// 27/22 Q1007

زمن: 10:19 (01:19 UTC)

توقعات

تاريخ ووقت الإصدار 2ساعات و 14 دقيقة قبل الساعة 23:05UTC
التوقعات صالحة من25 الساعة 00 UTC إلى 26 الساعة 06 UTC
ريح 12 عقدة من الغرب
الرؤية 10 كم أو أكثر
غيوم قليلة على ارتفاع 3000 قدم
أصبح
من 25 الساعة 12 UTC إلى 25 الساعة 15 UTC
ريح 4 عقدة من الجنوب/الجنوب الغربي

TAF: RJNT 242305Z 2500/2606 26012KT 9999 FEW030 BECMG 2512/2515 20004KT

أرصاد الطقس والتوقعات من أكثر من 4000 مطار (تقارير الطقس للمطار METAR والتنبؤ بالطقس بالمطارTAF).

المحطات المتاحة هي النقط الصفراء والحمراء على الخريطة.

حرك المؤشر فوق النقطة لمعرفة اسم المحطة.

ثم انقر لمعرفة أرصاد وتوقعات الطقس.

لتغيير الخارطة: اضغط على الأزرار الخضراء مع رمز الصليب الأسود للتكبير. على الزر الأخضر مع شرطة للتصغير، أو على الأسهم الخضراء للخرائط المجاورة.


METAR-TAF: